createdAt,value
2019-06-26T00:02:25.002Z,22.80
2019-06-26T00:05:13.607Z,22.80
2019-06-26T00:08:02.883Z,22.70
2019-06-26T00:10:52.155Z,22.70
2019-06-26T00:13:41.145Z,22.70
2019-06-26T00:16:30.559Z,22.70
2019-06-26T00:19:20.265Z,22.70
2019-06-26T00:22:09.490Z,22.80
2019-06-26T00:24:58.861Z,22.70
2019-06-26T00:27:49.706Z,22.70
2019-06-26T00:30:39.186Z,22.70
2019-06-26T00:33:28.106Z,22.70
2019-06-26T00:36:17.229Z,22.60
2019-06-26T00:39:07.946Z,22.70
2019-06-26T00:41:56.851Z,22.70
2019-06-26T00:44:45.536Z,22.60
2019-06-26T00:47:34.777Z,22.60
2019-06-26T00:50:24.304Z,22.60
2019-06-26T00:53:13.828Z,22.50
2019-06-26T00:56:03.134Z,22.50
2019-06-26T00:58:52.499Z,22.60
2019-06-26T01:01:42.280Z,22.50
2019-06-26T01:04:36.323Z,22.50
2019-06-26T01:07:24.784Z,22.50
2019-06-26T01:10:15.243Z,22.50
2019-06-26T01:13:04.254Z,22.40
2019-06-26T01:15:53.448Z,22.40
2019-06-26T01:18:42.086Z,22.40
2019-06-26T01:21:31.361Z,22.30
2019-06-26T01:24:20.255Z,22.30
2019-06-26T01:27:11.245Z,22.30
2019-06-26T01:30:00.096Z,22.30
2019-06-26T01:32:49.247Z,22.30
2019-06-26T01:35:38.325Z,22.30
2019-06-26T01:38:27.257Z,22.30
2019-06-26T01:41:16.616Z,22.30
2019-06-26T01:44:14.767Z,22.30
2019-06-26T01:46:56.736Z,22.30
2019-06-26T01:49:45.532Z,22.30
2019-06-26T01:52:34.863Z,22.20
2019-06-26T01:55:23.844Z,22.20
2019-06-26T01:58:12.223Z,22.20
2019-06-26T02:01:01.367Z,22.20
2019-06-26T02:03:50.460Z,22.20
2019-06-26T02:06:39.778Z,22.20
2019-06-26T02:09:28.983Z,22.20
2019-06-26T02:12:19.184Z,22.20
2019-06-26T02:15:09.025Z,22.20
2019-06-26T02:17:58.088Z,22.20
2019-06-26T02:20:46.881Z,22.20
2019-06-26T02:23:36.042Z,22.20
2019-06-26T02:26:25.386Z,22.20
2019-06-26T02:29:14.655Z,22.30
2019-06-26T02:32:04.054Z,22.30
2019-06-26T02:34:53.359Z,22.20
2019-06-26T02:37:42.663Z,22.20
2019-06-26T02:40:31.454Z,22.20
2019-06-26T02:43:21.514Z,22.30
2019-06-26T02:46:10.566Z,22.30
2019-06-26T02:48:59.816Z,22.20
2019-06-26T02:51:49.122Z,22.20
2019-06-26T02:54:38.472Z,22.20
2019-06-26T02:57:27.670Z,22.20
2019-06-26T03:00:17.100Z,22.20
2019-06-26T03:03:05.895Z,22.10
2019-06-26T03:05:55.022Z,22.10
2019-06-26T03:08:44.738Z,22.20
2019-06-26T03:11:33.812Z,22.20
2019-06-26T03:14:23.272Z,22.30
2019-06-26T03:17:13.286Z,22.30
2019-06-26T03:20:03.194Z,22.40
2019-06-26T03:22:51.907Z,22.40
2019-06-26T03:25:40.911Z,22.40
2019-06-26T03:28:30.202Z,22.50
2019-06-26T03:31:19.451Z,22.60
2019-06-26T03:34:09.088Z,22.60
2019-06-26T03:36:58.561Z,22.70
2019-06-26T03:39:47.860Z,22.80
2019-06-26T03:42:37.419Z,22.90
2019-06-26T03:45:26.785Z,23.00
2019-06-26T03:48:17.788Z,23.10
2019-06-26T03:51:06.481Z,23.20
2019-06-26T03:53:55.730Z,23.30
2019-06-26T03:56:44.571Z,23.40
2019-06-26T03:59:33.334Z,23.50
2019-06-26T04:02:22.710Z,23.60
2019-06-26T04:05:11.649Z,23.70
2019-06-26T04:08:01.145Z,23.80
2019-06-26T04:10:50.187Z,23.90
2019-06-26T04:13:39.677Z,24.00
2019-06-26T04:16:28.698Z,24.20
2019-06-26T04:19:18.106Z,24.30
2019-06-26T04:22:06.977Z,24.50
2019-06-26T04:24:55.839Z,24.60
2019-06-26T04:27:45.517Z,24.70
2019-06-26T04:30:34.648Z,24.80
2019-06-26T04:33:23.803Z,25.00
2019-06-26T04:36:12.833Z,25.10
2019-06-26T04:39:01.446Z,25.30
2019-06-26T04:41:50.360Z,25.50
2019-06-26T04:44:39.593Z,25.80
2019-06-26T04:47:27.946Z,25.90
2019-06-26T04:50:18.012Z,26.10
2019-06-26T04:53:07.094Z,26.90
2019-06-26T04:55:55.695Z,28.70
2019-06-26T04:58:45.220Z,30.10
2019-06-26T05:01:34.130Z,30.70
2019-06-26T05:04:23.049Z,31.50
2019-06-26T05:07:11.991Z,32.50
2019-06-26T05:10:01.278Z,33.20
2019-06-26T05:12:50.720Z,33.40
2019-06-26T05:15:40.329Z,33.50
2019-06-26T05:18:29.810Z,34.00
2019-06-26T05:21:19.272Z,34.60
2019-06-26T05:24:08.039Z,34.60
2019-06-26T05:26:55.652Z,34.60
2019-06-26T05:29:44.270Z,34.50
2019-06-26T05:32:32.487Z,34.30
2019-06-26T05:35:22.242Z,34.70
2019-06-26T05:38:11.716Z,34.80
2019-06-26T05:41:00.798Z,34.90
2019-06-26T05:43:50.200Z,34.90
2019-06-26T05:46:39.069Z,35.40
2019-06-26T05:49:27.508Z,35.40
2019-06-26T05:52:16.840Z,35.70
2019-06-26T05:55:08.460Z,35.80
2019-06-26T05:57:57.033Z,36.70
2019-06-26T06:00:46.807Z,36.70
2019-06-26T06:03:36.166Z,36.70
2019-06-26T06:06:40.664Z,36.40
2019-06-26T06:09:15.678Z,35.60
2019-06-26T06:12:05.270Z,36.00
2019-06-26T06:14:54.500Z,34.60
2019-06-26T06:17:43.859Z,34.20
2019-06-26T06:20:39.386Z,33.90
2019-06-26T06:23:28.121Z,33.80
2019-06-26T06:26:17.203Z,33.50
2019-06-26T06:29:06.265Z,33.90
2019-06-26T06:31:55.586Z,33.50
2019-06-26T06:34:49.741Z,33.40
2019-06-26T06:37:38.494Z,33.70
2019-06-26T06:40:30.243Z,33.80
2019-06-26T06:43:22.173Z,34.40
2019-06-26T06:46:11.603Z,34.20
2019-06-26T06:49:00.652Z,33.40
2019-06-26T06:51:59.211Z,32.60
2019-06-26T06:54:48.417Z,32.90
2019-06-26T06:57:37.597Z,33.80
2019-06-26T07:00:27.000Z,33.70
2019-06-26T07:03:15.756Z,33.40
2019-06-26T07:06:11.060Z,33.70
2019-06-26T07:09:00.065Z,34.10
2019-06-26T07:11:49.357Z,34.30
2019-06-26T07:14:37.884Z,34.40
2019-06-26T07:17:26.478Z,34.70
2019-06-26T07:20:15.500Z,35.00
2019-06-26T07:23:03.477Z,35.10
2019-06-26T07:25:52.088Z,35.20
2019-06-26T07:28:40.362Z,35.40
2019-06-26T07:31:29.437Z,35.50
2019-06-26T07:34:18.405Z,35.60
2019-06-26T07:37:07.566Z,35.30
2019-06-26T07:40:01.286Z,34.70
2019-06-26T07:42:47.435Z,34.50
2019-06-26T07:45:36.669Z,34.70
2019-06-26T07:48:26.047Z,34.70
2019-06-26T07:51:15.554Z,34.70
2019-06-26T07:54:04.756Z,34.60
2019-06-26T07:56:54.090Z,34.90
2019-06-26T07:59:42.849Z,34.80
2019-06-26T08:02:32.137Z,34.50
2019-06-26T08:05:21.325Z,34.30
2019-06-26T08:08:14.207Z,34.20
2019-06-26T08:11:00.947Z,33.50
2019-06-26T08:13:49.806Z,32.90
2019-06-26T08:16:39.080Z,32.10
2019-06-26T08:19:27.764Z,31.60
2019-06-26T08:22:17.214Z,31.30
2019-06-26T08:25:08.204Z,31.00
2019-06-26T08:27:57.284Z,30.70
2019-06-26T08:30:46.383Z,30.60
2019-06-26T08:33:35.620Z,30.50
2019-06-26T08:36:24.607Z,30.40
2019-06-26T08:39:13.899Z,30.30
2019-06-26T08:42:02.927Z,30.30
2019-06-26T08:44:51.839Z,30.10
2019-06-26T08:47:41.457Z,30.00
2019-06-26T08:50:30.774Z,30.30
2019-06-26T08:53:20.310Z,30.30
2019-06-26T08:56:09.443Z,30.40
2019-06-26T08:58:58.334Z,30.50
2019-06-26T09:01:47.416Z,30.40
2019-06-26T09:04:36.664Z,30.20
2019-06-26T09:07:25.838Z,30.20
2019-06-26T09:10:15.164Z,30.20
2019-06-26T09:13:04.680Z,30.40
2019-06-26T09:15:53.898Z,30.40
2019-06-26T09:18:43.114Z,30.50
2019-06-26T09:21:32.312Z,30.50
2019-06-26T09:24:21.868Z,30.50
2019-06-26T09:27:14.625Z,30.30
2019-06-26T09:30:01.433Z,30.30
2019-06-26T09:32:51.105Z,30.20
2019-06-26T09:35:40.267Z,30.20
2019-06-26T09:38:29.548Z,30.10
2019-06-26T09:41:19.006Z,29.90
2019-06-26T09:44:08.118Z,29.90
2019-06-26T09:46:57.177Z,29.80
2019-06-26T09:49:46.417Z,29.90
2019-06-26T09:52:35.064Z,30.10
2019-06-26T09:55:24.374Z,30.10
2019-06-26T09:58:13.868Z,30.20
2019-06-26T10:01:02.694Z,30.10
2019-06-26T10:03:51.538Z,30.00
2019-06-26T10:06:40.756Z,29.80
2019-06-26T10:09:30.377Z,29.90
2019-06-26T10:12:19.938Z,29.60
2019-06-26T10:15:10.667Z,29.40
2019-06-26T10:17:59.108Z,29.30
2019-06-26T10:20:48.403Z,29.20
2019-06-26T10:23:38.054Z,29.10
2019-06-26T10:26:27.492Z,29.10
2019-06-26T10:29:17.274Z,29.20
2019-06-26T10:32:06.478Z,29.20
2019-06-26T10:34:56.467Z,29.00
2019-06-26T10:37:45.774Z,29.00
2019-06-26T10:40:34.904Z,29.10
2019-06-26T10:43:24.194Z,29.40
2019-06-26T10:46:13.933Z,29.40
2019-06-26T10:49:02.367Z,29.40
2019-06-26T10:51:50.832Z,29.40
2019-06-26T10:54:43.985Z,29.40
2019-06-26T10:57:30.142Z,29.20
2019-06-26T11:00:19.519Z,28.90
2019-06-26T11:03:08.664Z,28.90
2019-06-26T11:05:57.801Z,28.90
2019-06-26T11:08:46.979Z,29.00
2019-06-26T11:11:36.277Z,28.80
2019-06-26T11:14:24.817Z,28.90
2019-06-26T11:17:13.629Z,29.10
2019-06-26T11:20:02.737Z,29.20
2019-06-26T11:22:52.291Z,28.80
2019-06-26T11:25:44.210Z,28.70
2019-06-26T11:28:30.297Z,28.50
2019-06-26T11:31:18.384Z,28.50
2019-06-26T11:34:06.514Z,28.70
2019-06-26T11:37:03.625Z,28.60
2019-06-26T11:39:45.074Z,28.60
2019-06-26T11:42:33.480Z,28.70
2019-06-26T11:45:22.893Z,28.80
2019-06-26T11:48:10.902Z,28.70
2019-06-26T11:50:59.377Z,28.70
2019-06-26T11:53:47.172Z,28.60
2019-06-26T11:56:35.366Z,28.80
2019-06-26T11:59:23.515Z,28.60
2019-06-26T12:02:11.758Z,28.40
2019-06-26T12:04:59.689Z,28.40
2019-06-26T12:07:48.737Z,28.20
2019-06-26T12:10:37.912Z,28.10
2019-06-26T12:13:26.428Z,27.90
2019-06-26T12:16:15.738Z,28.00
2019-06-26T12:19:04.629Z,28.20
2019-06-26T12:21:53.464Z,28.00
2019-06-26T12:24:42.464Z,28.10
2019-06-26T12:27:31.476Z,27.70
2019-06-26T12:30:21.522Z,27.80
2019-06-26T12:33:11.009Z,28.00
2019-06-26T12:36:00.326Z,28.10
2019-06-26T12:38:49.469Z,27.90
2019-06-26T12:41:37.849Z,27.70
2019-06-26T12:44:26.797Z,27.60
2019-06-26T12:47:16.271Z,27.40
2019-06-26T12:50:07.783Z,27.40
2019-06-26T12:52:56.748Z,27.10
2019-06-26T12:55:46.238Z,27.10
2019-06-26T12:58:34.708Z,27.00
2019-06-26T13:01:25.203Z,26.90
2019-06-26T13:04:15.175Z,26.80
2019-06-26T13:07:04.022Z,26.90
2019-06-26T13:09:53.219Z,26.80
2019-06-26T13:12:45.685Z,26.80
2019-06-26T13:15:32.821Z,26.90
2019-06-26T13:18:21.816Z,26.80
2019-06-26T13:21:11.185Z,26.90
2019-06-26T13:24:00.249Z,26.70
2019-06-26T13:26:53.397Z,26.80
2019-06-26T13:29:40.506Z,26.60
2019-06-26T13:32:29.603Z,26.40
2019-06-26T13:35:18.607Z,26.60
2019-06-26T13:38:07.620Z,26.50
2019-06-26T13:40:57.250Z,26.50
2019-06-26T13:43:46.574Z,26.60
2019-06-26T13:46:35.840Z,26.70
2019-06-26T13:49:24.974Z,26.50
2019-06-26T13:52:14.286Z,26.00
2019-06-26T13:55:04.181Z,26.00
2019-06-26T13:57:53.413Z,26.00
2019-06-26T14:00:41.896Z,26.10
2019-06-26T14:03:31.152Z,26.30
2019-06-26T14:06:20.455Z,26.30
2019-06-26T14:09:10.007Z,26.20
2019-06-26T14:11:59.479Z,26.10
2019-06-26T14:14:57.537Z,26.30
2019-06-26T14:17:39.055Z,26.00
2019-06-26T14:20:28.078Z,26.10
2019-06-26T14:23:16.970Z,26.00
2019-06-26T14:26:06.322Z,25.80
2019-06-26T14:28:55.603Z,25.80
2019-06-26T14:31:44.724Z,25.80
2019-06-26T14:34:33.933Z,25.90
2019-06-26T14:37:23.411Z,26.00
2019-06-26T14:40:12.257Z,25.90
2019-06-26T14:43:01.648Z,25.80
2019-06-26T14:45:50.801Z,25.60
2019-06-26T14:48:39.430Z,25.60
2019-06-26T14:51:42.224Z,25.40
2019-06-26T14:54:19.570Z,25.50
2019-06-26T14:57:08.718Z,25.50
2019-06-26T14:59:58.032Z,25.50
2019-06-26T15:02:47.561Z,25.40
2019-06-26T15:05:36.914Z,25.40
2019-06-26T15:08:26.199Z,25.20
2019-06-26T15:11:15.865Z,25.30
2019-06-26T15:14:05.763Z,25.10
2019-06-26T15:16:54.911Z,24.90
2019-06-26T15:19:44.610Z,24.90
2019-06-26T15:22:33.787Z,24.70
2019-06-26T15:25:23.364Z,24.80
2019-06-26T15:28:12.601Z,24.50
2019-06-26T15:31:01.854Z,24.40
2019-06-26T15:33:51.063Z,24.30
2019-06-26T15:36:40.158Z,24.40
2019-06-26T15:39:29.388Z,24.30
2019-06-26T15:42:18.286Z,24.40
2019-06-26T15:45:08.518Z,23.90
2019-06-26T15:47:57.605Z,23.70
2019-06-26T15:50:46.879Z,23.70
2019-06-26T15:53:36.044Z,23.90
2019-06-26T15:56:25.116Z,23.90
2019-06-26T15:59:14.763Z,23.70
2019-06-26T16:02:03.524Z,23.50
2019-06-26T16:04:53.049Z,23.50
2019-06-26T16:07:42.113Z,23.50
2019-06-26T16:10:34.459Z,23.30
2019-06-26T16:13:21.746Z,23.10
2019-06-26T16:16:10.827Z,23.20
2019-06-26T16:19:10.542Z,23.00
2019-06-26T16:21:59.389Z,23.00
2019-06-26T16:24:48.468Z,23.10
2019-06-26T16:27:36.641Z,23.10
2019-06-26T16:30:25.686Z,22.90
2019-06-26T16:33:13.930Z,22.60
2019-06-26T16:36:02.271Z,22.40
2019-06-26T16:38:51.534Z,22.20
2019-06-26T16:41:41.321Z,22.20
2019-06-26T16:44:30.091Z,22.40
2019-06-26T16:47:18.925Z,22.40
2019-06-26T16:50:09.756Z,22.30
2019-06-26T16:52:58.270Z,22.20
2019-06-26T16:55:47.665Z,22.00
2019-06-26T16:58:36.816Z,21.90
2019-06-26T17:01:26.273Z,21.70
2019-06-26T17:04:15.563Z,21.60
2019-06-26T17:07:04.529Z,21.60
2019-06-26T17:09:54.266Z,21.60
2019-06-26T17:12:43.370Z,21.60
2019-06-26T17:15:32.649Z,21.50
2019-06-26T17:18:22.032Z,21.40
2019-06-26T17:21:11.605Z,21.40
2019-06-26T17:24:00.407Z,21.40
2019-06-26T17:26:49.861Z,21.30
2019-06-26T17:29:38.492Z,21.10
2019-06-26T17:32:26.587Z,21.00
2019-06-26T17:35:15.088Z,20.90
2019-06-26T17:38:02.970Z,21.00
2019-06-26T17:40:51.274Z,20.90
2019-06-26T17:43:39.203Z,20.70
2019-06-26T17:46:27.880Z,20.80
2019-06-26T17:49:15.636Z,20.70
2019-06-26T17:52:04.051Z,20.70
2019-06-26T17:54:52.339Z,20.60
2019-06-26T17:57:40.543Z,20.50
2019-06-26T18:00:35.450Z,20.40
2019-06-26T18:03:23.914Z,20.30
2019-06-26T18:06:12.945Z,20.20
2019-06-26T18:09:02.225Z,20.10
2019-06-26T18:11:50.894Z,20.20
2019-06-26T18:14:38.651Z,20.00
2019-06-26T18:17:27.987Z,19.80
2019-06-26T18:20:17.150Z,19.60
2019-06-26T18:23:07.854Z,19.50
2019-06-26T18:26:11.977Z,19.60
2019-06-26T18:28:46.849Z,19.60
2019-06-26T18:31:36.072Z,19.70
2019-06-26T18:34:25.032Z,19.80
2019-06-26T18:37:14.100Z,19.70
2019-06-26T18:40:03.031Z,19.70
2019-06-26T18:42:52.534Z,19.60
2019-06-26T18:45:41.490Z,19.60
2019-06-26T18:48:30.452Z,19.50
2019-06-26T18:51:19.824Z,19.50
2019-06-26T18:54:09.104Z,19.50
2019-06-26T18:56:57.651Z,19.50
2019-06-26T18:59:48.842Z,19.50
2019-06-26T19:02:38.137Z,19.50
2019-06-26T19:05:27.288Z,19.30
2019-06-26T19:08:16.368Z,19.30
2019-06-26T19:11:05.736Z,19.20
2019-06-26T19:13:55.429Z,19.10
2019-06-26T19:16:44.388Z,19.10
2019-06-26T19:19:33.651Z,19.00
2019-06-26T19:22:22.652Z,18.90
2019-06-26T19:25:12.834Z,18.90
2019-06-26T19:28:01.973Z,18.90
2019-06-26T19:30:51.027Z,18.80
2019-06-26T19:33:40.202Z,18.80
2019-06-26T19:36:29.212Z,18.80
2019-06-26T19:39:20.890Z,18.80
2019-06-26T19:42:09.027Z,18.80
2019-06-26T19:44:57.133Z,18.70
2019-06-26T19:47:45.330Z,18.60
2019-06-26T19:50:33.523Z,18.50
2019-06-26T19:53:22.841Z,18.50
2019-06-26T19:56:11.956Z,18.60
2019-06-26T19:59:00.763Z,18.50
2019-06-26T20:01:51.487Z,18.50
2019-06-26T20:04:40.565Z,18.40
2019-06-26T20:07:29.811Z,18.40
2019-06-26T20:10:19.871Z,18.40
2019-06-26T20:13:09.269Z,18.30
2019-06-26T20:15:58.135Z,18.40
2019-06-26T20:18:47.801Z,18.30
2019-06-26T20:21:36.796Z,18.30
2019-06-26T20:24:39.640Z,18.20
2019-06-26T20:27:16.606Z,18.10
2019-06-26T20:30:09.692Z,18.10
2019-06-26T20:32:59.108Z,18.00
2019-06-26T20:35:48.041Z,18.00
2019-06-26T20:38:37.091Z,18.10
2019-06-26T20:41:26.698Z,17.90
2019-06-26T20:44:16.150Z,17.90
2019-06-26T20:47:04.887Z,17.80
2019-06-26T20:49:54.172Z,17.80
2019-06-26T20:52:43.643Z,17.80
2019-06-26T20:55:32.985Z,17.90
2019-06-26T20:58:22.386Z,17.90
2019-06-26T21:01:12.020Z,17.90
2019-06-26T21:04:01.246Z,17.80
2019-06-26T21:06:50.569Z,17.80
2019-06-26T21:09:39.742Z,17.70
2019-06-26T21:12:28.766Z,17.70
2019-06-26T21:15:18.554Z,17.70
2019-06-26T21:18:07.890Z,17.60
2019-06-26T21:20:56.389Z,17.60
2019-06-26T21:23:45.864Z,17.50
2019-06-26T21:26:34.325Z,17.40
2019-06-26T21:29:23.349Z,17.50
2019-06-26T21:32:12.924Z,17.40
2019-06-26T21:35:01.954Z,17.40
2019-06-26T21:37:50.799Z,17.30
2019-06-26T21:40:39.994Z,17.30
2019-06-26T21:43:29.375Z,17.20
2019-06-26T21:46:18.285Z,17.20
2019-06-26T21:49:07.722Z,17.10
2019-06-26T21:51:57.110Z,17.10
2019-06-26T21:54:46.578Z,17.00
2019-06-26T21:57:35.449Z,17.00
2019-06-26T22:00:25.615Z,17.00
2019-06-26T22:03:14.808Z,17.00
2019-06-26T22:06:03.739Z,17.00
2019-06-26T22:08:52.813Z,17.00
2019-06-26T22:11:41.549Z,17.00
2019-06-26T22:14:30.258Z,17.00
2019-06-26T22:17:19.586Z,17.00
2019-06-26T22:20:12.675Z,17.10
2019-06-26T22:23:01.214Z,17.10
2019-06-26T22:25:51.517Z,17.10
2019-06-26T22:28:41.064Z,17.10
2019-06-26T22:31:30.275Z,17.10
2019-06-26T22:34:19.493Z,17.00
2019-06-26T22:37:08.870Z,17.00
2019-06-26T22:39:58.298Z,16.90
2019-06-26T22:42:47.592Z,16.90
2019-06-26T22:45:37.087Z,16.80
2019-06-26T22:48:25.991Z,16.70
2019-06-26T22:51:15.230Z,16.70
2019-06-26T22:54:04.671Z,16.60
2019-06-26T22:56:53.978Z,16.50
2019-06-26T22:59:43.056Z,16.40
2019-06-26T23:02:32.303Z,16.40
2019-06-26T23:05:21.364Z,16.30
2019-06-26T23:08:11.941Z,16.30
2019-06-26T23:11:01.550Z,16.20
2019-06-26T23:13:50.783Z,16.20
2019-06-26T23:16:40.401Z,16.20
2019-06-26T23:19:29.562Z,16.20
2019-06-26T23:22:19.232Z,16.20
2019-06-26T23:25:09.048Z,16.10
2019-06-26T23:27:58.597Z,16.10
2019-06-26T23:30:47.667Z,16.10
2019-06-26T23:33:37.060Z,16.10
2019-06-26T23:36:25.996Z,16.00
2019-06-26T23:39:15.539Z,16.00
2019-06-26T23:42:04.801Z,16.00
2019-06-26T23:44:53.848Z,16.00
2019-06-26T23:47:43.395Z,15.90
2019-06-26T23:50:32.175Z,15.60
2019-06-26T23:53:21.514Z,15.40
2019-06-26T23:56:10.272Z,15.30
2019-06-26T23:58:59.404Z,15.20
